General Aviation Weather

Text Reports

Enter one or more of the following location identifiers separated by a space:

Zip Code, Four-Character ICAO or Three-Character IATA airport codes.

METAR - Aviation Routine Weather Report
KIZG - Fryeburg, Maine
Updated at 10:54 PM GMT on March 28, 2015 (6:54 PM EDT):
METAR KIZG 282254Z AUTO 35009KT 10SM BKN055 BKN080 OVC100 01/M09 A2985 RMK AO2 SLP114 T00061089
TAF - Terminal Area Forecast
KIZG - Fryeburg, Maine
Updated at 10:54 PM GMT on March 28, 2015 (6:54 PM EDT):
No TAF is currently available for this location.
Decoded:
No decoded TAF is available.
PIREP - Pilot Weather Report
KIZG - Fryeburg, Maine
Updated at 10:54 PM GMT on March 28, 2015 (6:54 PM EDT):
No PIREP is currently available for this location.
AIRMET - Airmens Meteorological Information
KIZG - Fryeburg, Maine
Updated at 10:54 PM GMT on March 28, 2015 (6:54 PM EDT):
No AIRMET is currently available for this location.
SIGMET - Significant Meteorological Information
KIZG - Fryeburg, Maine
Updated at 10:54 PM GMT on March 28, 2015 (6:54 PM EDT):
No SIGMET is currently available for this location.
NOTAM - Notice to Airmen
KIZG - Fryeburg, Maine
Updated at 10:54 PM GMT on March 28, 2015 (6:54 PM EDT):
No NOTAM is currently available for this location.
Forecast Area
KIZG - Fryeburg, Maine
Updated at 10:54 PM GMT on March 28, 2015 (6:54 PM EDT):
No NOTAM is currently available for this location.
Aviation Weather Maps